Greenbrier Valley Airport
KLWB : now visible

Airfield :











YOU CAN JOIN US ON...

 
LOGIN :

Register | Disclaimer

   EN    FR    IT 

 









Legend :    VFR   Marginal VFR   IFR   Intensive IFR   Very Intensive IFR
Visi :
Ceiling :
>= 8 km
>= 3000ft
5 to 8 km
1000 to 3000 ft
1500m to 5 km
500 to 1000 ft
800 to 1500m
200 to 500 ft
< 800m
< 200 ft
Symbols :   Thunderstorms  Fog  Heavy snow  Heavy precipitations  Wind > 20 kt






- Airport Elevation : 2302 ft


KLWB - Greenbrier Valley

CURRENT METAR :
  • 260515Z AUTO 26006KT 10SM SCT010 OVC015 11/09 A2977 RMK AO2 T01070090

EXPIRED METARs :
  • 260455Z AUTO 27004KT 10SM BKN017 OVC050 11/09 A2977 RMK AO2 T01090090 402110058
  • 260435Z AUTO 27007KT 10SM SCT045 BKN050 OVC065 11/09 A2977 RMK AO2 T01100090
  • 260415Z AUTO 27009KT 10SM SCT045 OVC049 11/09 A2977 RMK AO2 T01120093
  • 260355Z AUTO 30007KT 10SM SCT019 BKN055 OVC070 11/09 A2978 RMK AO2 T01130094
  • 260335Z AUTO 32008KT 10SM SCT021 BKN030 OVC070 12/10 A2978 RMK AO2 T01180099
  • 260315Z AUTO 29006KT 10SM SCT005 SCT011 OVC026 12/11 A2978 RMK AO2 T01190109
  • 260255Z AUTO 00000KT 3SM DZ OVC005 12/12 A2978 RMK AO2 P0001 60001 T01160115
  • 260235Z AUTO 00000KT 5SM DZ BKN007 OVC012 12/11 A2977 RMK AO2 P0001 T01150114

TAF KLWB
Valid from the 26 at 06:00 until the 27 at 06:00 UTC


260520Z 2606/2706 28006KT P6SM VCSH BKN015 OVC050
FM260900 28009G16KT P6SM OVC015
FM261000 29011G19KT 5SM BR OVC007
FM261700 30013G22KT P6SM OVC025
FM262200 31010G18KT P6SM OVC050
KZDC FIR / North America



MET'MAP, your aeronautical weather chart ! - Copyright ORBIFLY December 2007 - Disclaimer

ORBIFLY MET'MAP TEAM :

Programming & Development : Alexandra Zaïnal
Concept & original design : Baudouin d'Aumeries
Assistance for programming : Marc-Olivier Méhu
Technical & hardware support : Manuel Goepfert

Contact : metmap@orbifly.com




SOURCES & CREDITS :

   NOAA       Earth
Advisory